sensor_id;sensor_type;location;lat;lon;timestamp;temperature;humidity
578;DHT22;275;48.492;9.214;2023-07-13T00:00:36;23.70;33.50
578;DHT22;275;48.492;9.214;2023-07-13T00:03:03;23.50;33.90
578;DHT22;275;48.492;9.214;2023-07-13T00:05:30;23.50;34.30
578;DHT22;275;48.492;9.214;2023-07-13T00:07:57;23.80;34.10
578;DHT22;275;48.492;9.214;2023-07-13T00:10:24;23.60;34.40
578;DHT22;275;48.492;9.214;2023-07-13T00:12:53;23.80;33.90
578;DHT22;275;48.492;9.214;2023-07-13T00:15:24;24.10;33.20
578;DHT22;275;48.492;9.214;2023-07-13T00:17:51;23.90;32.90
578;DHT22;275;48.492;9.214;2023-07-13T00:20:18;23.70;33.70
578;DHT22;275;48.492;9.214;2023-07-13T00:22:47;23.20;35.30
578;DHT22;275;48.492;9.214;2023-07-13T00:25:14;23.40;35.20
578;DHT22;275;48.492;9.214;2023-07-13T00:27:42;23.60;34.50
578;DHT22;275;48.492;9.214;2023-07-13T00:30:11;23.50;34.60
578;DHT22;275;48.492;9.214;2023-07-13T00:32:38;23.60;34.40
578;DHT22;275;48.492;9.214;2023-07-13T00:35:06;23.70;33.30
578;DHT22;275;48.492;9.214;2023-07-13T00:37:33;23.30;34.50
578;DHT22;275;48.492;9.214;2023-07-13T00:40:01;23.40;34.50
578;DHT22;275;48.492;9.214;2023-07-13T00:42:29;23.50;34.20
578;DHT22;275;48.492;9.214;2023-07-13T00:45:04;23.00;35.30
578;DHT22;275;48.492;9.214;2023-07-13T00:47:33;22.60;36.20
578;DHT22;275;48.492;9.214;2023-07-13T00:50:00;22.70;35.90
578;DHT22;275;48.492;9.214;2023-07-13T00:52:28;23.10;35.20
578;DHT22;275;48.492;9.214;2023-07-13T00:54:55;23.70;33.90
578;DHT22;275;48.492;9.214;2023-07-13T00:57:22;23.50;34.20
578;DHT22;275;48.492;9.214;2023-07-13T00:59:54;23.30;34.60
578;DHT22;275;48.492;9.214;2023-07-13T01:02:22;23.10;34.90
578;DHT22;275;48.492;9.214;2023-07-13T01:04:52;22.90;34.90
578;DHT22;275;48.492;9.214;2023-07-13T01:07:19;23.10;34.60
578;DHT22;275;48.492;9.214;2023-07-13T01:09:46;23.10;34.40
578;DHT22;275;48.492;9.214;2023-07-13T01:12:12;23.50;33.50
578;DHT22;275;48.492;9.214;2023-07-13T01:14:40;23.70;33.30
578;DHT22;275;48.492;9.214;2023-07-13T01:17:09;23.50;32.50
578;DHT22;275;48.492;9.214;2023-07-13T01:19:38;23.40;33.20
578;DHT22;275;48.492;9.214;2023-07-13T01:22:08;23.50;32.60
578;DHT22;275;48.492;9.214;2023-07-13T01:24:37;23.10;33.50
578;DHT22;275;48.492;9.214;2023-07-13T01:27:06;23.30;32.70
578;DHT22;275;48.492;9.214;2023-07-13T01:29:35;23.50;31.70
578;DHT22;275;48.492;9.214;2023-07-13T01:32:08;23.70;31.30
578;DHT22;275;48.492;9.214;2023-07-13T01:34:36;23.70;31.30
578;DHT22;275;48.492;9.214;2023-07-13T01:37:04;24.00;30.80
578;DHT22;275;48.492;9.214;2023-07-13T01:39:32;23.60;31.50
578;DHT22;275;48.492;9.214;2023-07-13T01:41:59;23.80;31.10
578;DHT22;275;48.492;9.214;2023-07-13T01:44:26;23.90;30.60
578;DHT22;275;48.492;9.214;2023-07-13T01:46:53;23.70;31.00
578;DHT22;275;48.492;9.214;2023-07-13T01:49:20;23.30;32.10
578;DHT22;275;48.492;9.214;2023-07-13T01:51:46;23.20;32.30
578;DHT22;275;48.492;9.214;2023-07-13T01:54:13;23.10;33.30
578;DHT22;275;48.492;9.214;2023-07-13T01:56:41;23.00;32.80
578;DHT22;275;48.492;9.214;2023-07-13T01:59:08;23.00;32.40
578;DHT22;275;48.492;9.214;2023-07-13T02:01:35;23.00;32.40
578;DHT22;275;48.492;9.214;2023-07-13T02:04:02;22.90;32.70
578;DHT22;275;48.492;9.214;2023-07-13T02:06:29;23.40;31.60
578;DHT22;275;48.492;9.214;2023-07-13T02:08:57;23.60;30.70
578;DHT22;275;48.492;9.214;2023-07-13T02:11:24;23.40;31.40
578;DHT22;275;48.492;9.214;2023-07-13T02:13:59;23.20;31.20
578;DHT22;275;48.492;9.214;2023-07-13T02:16:27;23.10;31.80
578;DHT22;275;48.492;9.214;2023-07-13T02:18:54;23.10;31.70
578;DHT22;275;48.492;9.214;2023-07-13T02:21:21;22.80;32.20
578;DHT22;275;48.492;9.214;2023-07-13T02:23:48;22.90;32.30
578;DHT22;275;48.492;9.214;2023-07-13T02:26:15;23.10;31.60
578;DHT22;275;48.492;9.214;2023-07-13T02:28:43;23.20;31.30
578;DHT22;275;48.492;9.214;2023-07-13T02:31:13;23.40;33.70
578;DHT22;275;48.492;9.214;2023-07-13T02:33:40;23.10;35.20
578;DHT22;275;48.492;9.214;2023-07-13T02:36:08;22.30;37.00
578;DHT22;275;48.492;9.214;2023-07-13T02:38:36;21.80;38.90
578;DHT22;275;48.492;9.214;2023-07-13T02:41:03;22.00;38.70
578;DHT22;275;48.492;9.214;2023-07-13T02:43:30;22.30;38.00
578;DHT22;275;48.492;9.214;2023-07-13T02:45:58;22.70;36.80
578;DHT22;275;48.492;9.214;2023-07-13T02:48:30;23.00;36.00
578;DHT22;275;48.492;9.214;2023-07-13T02:50:57;22.80;36.80
578;DHT22;275;48.492;9.214;2023-07-13T02:53:24;22.30;37.60
578;DHT22;275;48.492;9.214;2023-07-13T02:55:51;22.00;38.40
578;DHT22;275;48.492;9.214;2023-07-13T02:58:18;21.90;38.20
578;DHT22;275;48.492;9.214;2023-07-13T03:00:46;22.20;37.50
578;DHT22;275;48.492;9.214;2023-07-13T03:03:14;22.20;37.50
578;DHT22;275;48.492;9.214;2023-07-13T03:05:44;22.00;37.80
578;DHT22;275;48.492;9.214;2023-07-13T03:08:15;22.00;38.20
578;DHT22;275;48.492;9.214;2023-07-13T03:10:43;21.80;38.60
578;DHT22;275;48.492;9.214;2023-07-13T03:13:10;21.70;38.90
578;DHT22;275;48.492;9.214;2023-07-13T03:15:37;21.90;38.60
578;DHT22;275;48.492;9.214;2023-07-13T03:18:04;22.00;38.30
578;DHT22;275;48.492;9.214;2023-07-13T03:20:32;22.00;38.50
578;DHT22;275;48.492;9.214;2023-07-13T03:23:01;21.90;39.00
578;DHT22;275;48.492;9.214;2023-07-13T03:25:28;21.70;39.50
578;DHT22;275;48.492;9.214;2023-07-13T03:27:55;21.70;39.50
578;DHT22;275;48.492;9.214;2023-07-13T03:30:22;21.50;39.90
578;DHT22;275;48.492;9.214;2023-07-13T03:32:49;21.40;40.60
578;DHT22;275;48.492;9.214;2023-07-13T03:35:16;21.50;40.50
578;DHT22;275;48.492;9.214;2023-07-13T03:37:43;21.70;39.50
578;DHT22;275;48.492;9.214;2023-07-13T03:40:12;21.80;39.50
578;DHT22;275;48.492;9.214;2023-07-13T03:42:39;21.40;40.50
578;DHT22;275;48.492;9.214;2023-07-13T03:45:07;21.10;41.10
578;DHT22;275;48.492;9.214;2023-07-13T03:47:34;21.10;41.20
578;DHT22;275;48.492;9.214;2023-07-13T03:50:01;20.70;42.50
578;DHT22;275;48.492;9.214;2023-07-13T03:52:28;21.30;40.90
578;DHT22;275;48.492;9.214;2023-07-13T03:54:55;21.70;39.70
578;DHT22;275;48.492;9.214;2023-07-13T03:57:24;21.60;40.00
578;DHT22;275;48.492;9.214;2023-07-13T03:59:50;21.10;40.70
578;DHT22;275;48.492;9.214;2023-07-13T04:02:17;20.90;41.20
578;DHT22;275;48.492;9.214;2023-07-13T04:04:44;21.20;40.30
578;DHT22;275;48.492;9.214;2023-07-13T04:07:11;21.20;40.20
578;DHT22;275;48.492;9.214;2023-07-13T04:09:38;21.10;40.40
578;DHT22;275;48.492;9.214;2023-07-13T04:12:06;20.90;41.50
578;DHT22;275;48.492;9.214;2023-07-13T04:14:34;20.90;41.30
578;DHT22;275;48.492;9.214;2023-07-13T04:17:01;20.90;41.20
578;DHT22;275;48.492;9.214;2023-07-13T04:19:28;21.40;39.80
578;DHT22;275;48.492;9.214;2023-07-13T04:21:54;21.40;39.70
578;DHT22;275;48.492;9.214;2023-07-13T04:24:21;21.20;40.20
578;DHT22;275;48.492;9.214;2023-07-13T04:26:48;21.40;39.40
578;DHT22;275;48.492;9.214;2023-07-13T04:29:15;21.90;37.90
578;DHT22;275;48.492;9.214;2023-07-13T04:31:43;21.90;37.80
578;DHT22;275;48.492;9.214;2023-07-13T04:34:10;22.00;37.40
578;DHT22;275;48.492;9.214;2023-07-13T04:36:37;21.70;38.10
578;DHT22;275;48.492;9.214;2023-07-13T04:39:04;21.70;38.10
578;DHT22;275;48.492;9.214;2023-07-13T04:41:30;21.80;37.90
578;DHT22;275;48.492;9.214;2023-07-13T04:43:57;22.20;36.90
578;DHT22;275;48.492;9.214;2023-07-13T04:46:24;22.70;36.40
578;DHT22;275;48.492;9.214;2023-07-13T04:48:52;22.10;36.90
578;DHT22;275;48.492;9.214;2023-07-13T04:51:19;21.60;38.20
578;DHT22;275;48.492;9.214;2023-07-13T04:53:46;21.40;38.80
578;DHT22;275;48.492;9.214;2023-07-13T04:56:13;21.50;38.50
578;DHT22;275;48.492;9.214;2023-07-13T04:58:40;22.00;38.20
578;DHT22;275;48.492;9.214;2023-07-13T05:01:07;21.60;37.60
578;DHT22;275;48.492;9.214;2023-07-13T05:03:34;22.00;37.00
578;DHT22;275;48.492;9.214;2023-07-13T05:06:04;22.40;36.30
578;DHT22;275;48.492;9.214;2023-07-13T05:08:31;22.50;35.70
578;DHT22;275;48.492;9.214;2023-07-13T05:10:59;22.90;34.90
578;DHT22;275;48.492;9.214;2023-07-13T05:13:26;22.70;35.20
578;DHT22;275;48.492;9.214;2023-07-13T05:15:57;22.90;34.90
578;DHT22;275;48.492;9.214;2023-07-13T05:18:24;22.90;35.00
578;DHT22;275;48.492;9.214;2023-07-13T05:21:03;22.50;36.60
578;DHT22;275;48.492;9.214;2023-07-13T05:23:31;22.00;38.10
578;DHT22;275;48.492;9.214;2023-07-13T05:25:58;21.90;39.10
578;DHT22;275;48.492;9.214;2023-07-13T05:28:25;22.10;38.20
578;DHT22;275;48.492;9.214;2023-07-13T05:30:53;22.00;38.20
578;DHT22;275;48.492;9.214;2023-07-13T05:33:20;22.10;38.20
578;DHT22;275;48.492;9.214;2023-07-13T05:35:47;22.60;36.80
578;DHT22;275;48.492;9.214;2023-07-13T05:38:15;22.00;36.90
578;DHT22;275;48.492;9.214;2023-07-13T05:40:43;21.60;38.20
578;DHT22;275;48.492;9.214;2023-07-13T05:43:10;21.50;38.30
578;DHT22;275;48.492;9.214;2023-07-13T05:45:37;22.00;37.50
578;DHT22;275;48.492;9.214;2023-07-13T05:48:04;22.20;37.00
578;DHT22;275;48.492;9.214;2023-07-13T05:50:30;22.00;37.50
578;DHT22;275;48.492;9.214;2023-07-13T05:52:58;22.10;37.00
578;DHT22;275;48.492;9.214;2023-07-13T05:55:26;22.20;36.00
578;DHT22;275;48.492;9.214;2023-07-13T05:57:53;22.40;35.20
578;DHT22;275;48.492;9.214;2023-07-13T06:00:20;22.90;34.20
578;DHT22;275;48.492;9.214;2023-07-13T06:02:46;23.70;32.10
578;DHT22;275;48.492;9.214;2023-07-13T06:05:13;23.70;32.20
578;DHT22;275;48.492;9.214;2023-07-13T06:07:41;23.10;33.30
578;DHT22;275;48.492;9.214;2023-07-13T06:10:08;22.60;33.00
578;DHT22;275;48.492;9.214;2023-07-13T06:12:37;22.70;33.40
578;DHT22;275;48.492;9.214;2023-07-13T06:15:05;23.40;32.80
578;DHT22;275;48.492;9.214;2023-07-13T06:17:32;23.80;32.00
578;DHT22;275;48.492;9.214;2023-07-13T06:19:58;24.50;30.60
578;DHT22;275;48.492;9.214;2023-07-13T06:22:25;25.10;29.30
578;DHT22;275;48.492;9.214;2023-07-13T06:24:52;24.30;30.00
578;DHT22;275;48.492;9.214;2023-07-13T06:27:19;24.10;30.00
578;DHT22;275;48.492;9.214;2023-07-13T06:29:48;24.20;29.90
578;DHT22;275;48.492;9.214;2023-07-13T06:32:14;24.70;29.40
578;DHT22;275;48.492;9.214;2023-07-13T06:34:41;24.60;29.60
578;DHT22;275;48.492;9.214;2023-07-13T06:37:08;24.50;29.50
578;DHT22;275;48.492;9.214;2023-07-13T06:39:35;24.50;29.40
578;DHT22;275;48.492;9.214;2023-07-13T06:42:02;24.40;29.90
578;DHT22;275;48.492;9.214;2023-07-13T06:44:30;24.30;28.90
578;DHT22;275;48.492;9.214;2023-07-13T06:46:58;24.60;28.20
578;DHT22;275;48.492;9.214;2023-07-13T06:49:25;24.70;27.70
578;DHT22;275;48.492;9.214;2023-07-13T06:51:52;24.80;27.10
578;DHT22;275;48.492;9.214;2023-07-13T06:54:19;24.60;24.60
578;DHT22;275;48.492;9.214;2023-07-13T06:56:45;24.80;24.10
578;DHT22;275;48.492;9.214;2023-07-13T06:59:12;23.60;26.30
578;DHT22;275;48.492;9.214;2023-07-13T07:01:39;23.20;26.40
578;DHT22;275;48.492;9.214;2023-07-13T07:04:07;23.70;26.60
578;DHT22;275;48.492;9.214;2023-07-13T07:06:34;24.10;26.60
578;DHT22;275;48.492;9.214;2023-07-13T07:09:01;24.50;26.60
578;DHT22;275;48.492;9.214;2023-07-13T07:11:28;24.90;25.80
578;DHT22;275;48.492;9.214;2023-07-13T07:13:54;25.10;24.70
578;DHT22;275;48.492;9.214;2023-07-13T07:16:22;25.40;24.20
578;DHT22;275;48.492;9.214;2023-07-13T07:18:49;25.40;23.90
578;DHT22;275;48.492;9.214;2023-07-13T07:21:17;25.80;23.60
578;DHT22;275;48.492;9.214;2023-07-13T07:23:44;26.90;21.80
578;DHT22;275;48.492;9.214;2023-07-13T07:26:10;28.50;19.10
578;DHT22;275;48.492;9.214;2023-07-13T07:28:37;30.10;16.80
578;DHT22;275;48.492;9.214;2023-07-13T07:31:04;31.20;16.60
578;DHT22;275;48.492;9.214;2023-07-13T07:33:32;30.10;17.10
578;DHT22;275;48.492;9.214;2023-07-13T07:35:59;31.80;15.30
578;DHT22;275;48.492;9.214;2023-07-13T07:38:27;33.10;15.00
578;DHT22;275;48.492;9.214;2023-07-13T07:40:54;34.30;12.70
578;DHT22;275;48.492;9.214;2023-07-13T07:43:21;33.40;13.80
578;DHT22;275;48.492;9.214;2023-07-13T07:45:47;30.70;16.30
578;DHT22;275;48.492;9.214;2023-07-13T07:48:14;30.40;16.60
578;DHT22;275;48.492;9.214;2023-07-13T07:50:41;31.20;16.10
578;DHT22;275;48.492;9.214;2023-07-13T07:53:10;33.00;14.30
578;DHT22;275;48.492;9.214;2023-07-13T07:55:38;33.70;12.60
578;DHT22;275;48.492;9.214;2023-07-13T07:58:05;33.20;13.30
578;DHT22;275;48.492;9.214;2023-07-13T08:00:32;31.60;13.90
578;DHT22;275;48.492;9.214;2023-07-13T08:03:01;30.10;15.20
578;DHT22;275;48.492;9.214;2023-07-13T08:05:29;28.90;14.90
578;DHT22;275;48.492;9.214;2023-07-13T08:07:56;30.10;15.10
578;DHT22;275;48.492;9.214;2023-07-13T08:10:22;31.00;13.40
578;DHT22;275;48.492;9.214;2023-07-13T08:12:51;31.10;11.90
578;DHT22;275;48.492;9.214;2023-07-13T08:15:18;32.30;11.00
578;DHT22;275;48.492;9.214;2023-07-13T08:17:46;33.40;9.70
578;DHT22;275;48.492;9.214;2023-07-13T08:20:13;32.50;11.90
578;DHT22;275;48.492;9.214;2023-07-13T08:22:40;33.50;12.10
578;DHT22;275;48.492;9.214;2023-07-13T08:25:08;35.80;9.60
578;DHT22;275;48.492;9.214;2023-07-13T08:27:34;36.30;9.00
578;DHT22;275;48.492;9.214;2023-07-13T08:30:03;37.60;7.90
578;DHT22;275;48.492;9.214;2023-07-13T08:32:31;35.80;8.70
578;DHT22;275;48.492;9.214;2023-07-13T08:34:58;36.80;8.10
578;DHT22;275;48.492;9.214;2023-07-13T08:37:25;36.90;7.90
578;DHT22;275;48.492;9.214;2023-07-13T08:39:51;36.10;8.80
578;DHT22;275;48.492;9.214;2023-07-13T08:42:36;37.30;8.00
578;DHT22;275;48.492;9.214;2023-07-13T08:45:08;38.80;6.50
578;DHT22;275;48.492;9.214;2023-07-13T08:47:42;38.90;6.50
578;DHT22;275;48.492;9.214;2023-07-13T08:50:14;37.30;7.40
578;DHT22;275;48.492;9.214;2023-07-13T08:52:43;36.90;7.70
578;DHT22;275;48.492;9.214;2023-07-13T08:55:14;37.10;7.60
578;DHT22;275;48.492;9.214;2023-07-13T08:57:43;36.60;7.90
578;DHT22;275;48.492;9.214;2023-07-13T09:00:14;37.00;7.40
578;DHT22;275;48.492;9.214;2023-07-13T09:02:46;37.20;7.10
578;DHT22;275;48.492;9.214;2023-07-13T09:05:15;37.90;6.60
578;DHT22;275;48.492;9.214;2023-07-13T09:07:57;38.70;5.90
578;DHT22;275;48.492;9.214;2023-07-13T09:10:29;38.50;5.50
578;DHT22;275;48.492;9.214;2023-07-13T09:13:10;37.20;5.90
578;DHT22;275;48.492;9.214;2023-07-13T09:15:44;37.70;5.90
578;DHT22;275;48.492;9.214;2023-07-13T09:18:16;35.60;7.50
578;DHT22;275;48.492;9.214;2023-07-13T09:20:49;37.00;6.70
578;DHT22;275;48.492;9.214;2023-07-13T09:23:20;37.60;6.00
578;DHT22;275;48.492;9.214;2023-07-13T09:25:48;37.40;5.80
578;DHT22;275;48.492;9.214;2023-07-13T09:28:23;36.90;6.50
578;DHT22;275;48.492;9.214;2023-07-13T09:30:58;38.50;5.00
578;DHT22;275;48.492;9.214;2023-07-13T09:33:26;38.60;4.20
578;DHT22;275;48.492;9.214;2023-07-13T09:35:54;36.00;5.40
578;DHT22;275;48.492;9.214;2023-07-13T09:38:24;38.10;4.40
578;DHT22;275;48.492;9.214;2023-07-13T09:41:09;36.80;5.40
578;DHT22;275;48.492;9.214;2023-07-13T09:44:01;38.50;4.30
578;DHT22;275;48.492;9.214;2023-07-13T09:46:29;40.40;3.30
578;DHT22;275;48.492;9.214;2023-07-13T09:48:56;36.30;6.10
578;DHT22;275;48.492;9.214;2023-07-13T09:51:23;35.00;7.10
578;DHT22;275;48.492;9.214;2023-07-13T09:53:50;34.20;7.70
578;DHT22;275;48.492;9.214;2023-07-13T09:56:20;32.80;9.80
578;DHT22;275;48.492;9.214;2023-07-13T09:58:47;34.90;7.40
578;DHT22;275;48.492;9.214;2023-07-13T10:01:14;34.90;6.90
578;DHT22;275;48.492;9.214;2023-07-13T10:03:53;35.30;6.60
578;DHT22;275;48.492;9.214;2023-07-13T10:06:21;34.20;7.20
578;DHT22;275;48.492;9.214;2023-07-13T10:08:49;35.00;6.80
578;DHT22;275;48.492;9.214;2023-07-13T10:11:18;34.20;8.30
578;DHT22;275;48.492;9.214;2023-07-13T10:13:50;37.20;5.40
578;DHT22;275;48.492;9.214;2023-07-13T10:16:18;39.10;4.10
578;DHT22;275;48.492;9.214;2023-07-13T10:18:48;39.20;3.70
578;DHT22;275;48.492;9.214;2023-07-13T10:21:18;34.70;4.80
578;DHT22;275;48.492;9.214;2023-07-13T10:23:50;31.10;9.10
578;DHT22;275;48.492;9.214;2023-07-13T10:26:22;29.70;11.20
578;DHT22;275;48.492;9.214;2023-07-13T10:28:52;30.00;11.40
578;DHT22;275;48.492;9.214;2023-07-13T10:31:21;30.50;11.00
578;DHT22;275;48.492;9.214;2023-07-13T10:33:50;31.70;8.90
578;DHT22;275;48.492;9.214;2023-07-13T10:36:24;33.80;6.90
578;DHT22;275;48.492;9.214;2023-07-13T10:38:55;34.40;6.30
578;DHT22;275;48.492;9.214;2023-07-13T10:41:25;34.90;6.10
578;DHT22;275;48.492;9.214;2023-07-13T10:43:54;35.20;6.10
578;DHT22;275;48.492;9.214;2023-07-13T10:46:25;34.90;5.90
578;DHT22;275;48.492;9.214;2023-07-13T10:48:57;35.80;5.70
578;DHT22;275;48.492;9.214;2023-07-13T10:51:25;35.70;5.50
578;DHT22;275;48.492;9.214;2023-07-13T10:54:11;36.40;5.20
578;DHT22;275;48.492;9.214;2023-07-13T10:56:41;35.80;5.10
578;DHT22;275;48.492;9.214;2023-07-13T10:59:12;33.10;7.30
578;DHT22;275;48.492;9.214;2023-07-13T11:01:49;32.40;8.60
578;DHT22;275;48.492;9.214;2023-07-13T11:04:19;34.30;7.20
578;DHT22;275;48.492;9.214;2023-07-13T11:06:50;33.90;7.70
578;DHT22;275;48.492;9.214;2023-07-13T11:09:35;35.40;6.20
578;DHT22;275;48.492;9.214;2023-07-13T11:12:07;37.50;4.60
578;DHT22;275;48.492;9.214;2023-07-13T11:14:36;37.10;4.10
578;DHT22;275;48.492;9.214;2023-07-13T11:17:24;36.20;4.70
578;DHT22;275;48.492;9.214;2023-07-13T11:19:53;37.90;3.70
578;DHT22;275;48.492;9.214;2023-07-13T11:22:25;38.50;3.70
578;DHT22;275;48.492;9.214;2023-07-13T11:25:25;36.50;4.40
578;DHT22;275;48.492;9.214;2023-07-13T11:28:03;35.50;5.90
578;DHT22;275;48.492;9.214;2023-07-13T11:30:37;37.30;4.20
578;DHT22;275;48.492;9.214;2023-07-13T11:33:13;36.10;4.60
578;DHT22;275;48.492;9.214;2023-07-13T11:35:58;34.30;6.10
578;DHT22;275;48.492;9.214;2023-07-13T11:38:30;34.00;6.40
578;DHT22;275;48.492;9.214;2023-07-13T11:41:01;32.80;7.80
578;DHT22;275;48.492;9.214;2023-07-13T11:43:29;33.30;7.60
578;DHT22;275;48.492;9.214;2023-07-13T11:46:00;33.50;7.40
578;DHT22;275;48.492;9.214;2023-07-13T11:48:38;34.00;7.30
578;DHT22;275;48.492;9.214;2023-07-13T11:51:14;35.40;5.70
578;DHT22;275;48.492;9.214;2023-07-13T11:53:48;36.70;5.90
578;DHT22;275;48.492;9.214;2023-07-13T11:56:15;38.20;4.00
578;DHT22;275;48.492;9.214;2023-07-13T11:58:42;39.30;3.00
578;DHT22;275;48.492;9.214;2023-07-13T12:01:16;37.90;2.50
578;DHT22;275;48.492;9.214;2023-07-13T12:03:45;34.80;5.90
578;DHT22;275;48.492;9.214;2023-07-13T12:06:25;35.60;5.10
578;DHT22;275;48.492;9.214;2023-07-13T12:08:56;34.80;4.90
578;DHT22;275;48.492;9.214;2023-07-13T12:11:23;34.10;6.50
578;DHT22;275;48.492;9.214;2023-07-13T12:13:50;36.20;4.20
578;DHT22;275;48.492;9.214;2023-07-13T12:16:25;36.20;5.30
578;DHT22;275;48.492;9.214;2023-07-13T12:18:53;35.10;5.60
578;DHT22;275;48.492;9.214;2023-07-13T12:21:27;37.20;4.20
578;DHT22;275;48.492;9.214;2023-07-13T12:23:55;37.20;3.90
578;DHT22;275;48.492;9.214;2023-07-13T12:26:22;38.50;3.10
578;DHT22;275;48.492;9.214;2023-07-13T12:28:52;38.50;2.20
578;DHT22;275;48.492;9.214;2023-07-13T12:31:30;36.80;3.90
578;DHT22;275;48.492;9.214;2023-07-13T12:34:00;35.40;5.20
578;DHT22;275;48.492;9.214;2023-07-13T12:36:31;33.40;6.80
578;DHT22;275;48.492;9.214;2023-07-13T12:39:03;32.60;7.60
578;DHT22;275;48.492;9.214;2023-07-13T12:41:31;31.00;9.10
578;DHT22;275;48.492;9.214;2023-07-13T12:43:59;31.00;9.00
578;DHT22;275;48.492;9.214;2023-07-13T12:46:26;32.20;7.70
578;DHT22;275;48.492;9.214;2023-07-13T12:48:56;34.10;6.20
578;DHT22;275;48.492;9.214;2023-07-13T12:51:25;36.20;4.60
578;DHT22;275;48.492;9.214;2023-07-13T12:53:58;34.70;5.60
578;DHT22;275;48.492;9.214;2023-07-13T12:56:27;35.40;5.10
578;DHT22;275;48.492;9.214;2023-07-13T12:58:58;35.20;4.60
578;DHT22;275;48.492;9.214;2023-07-13T13:01:28;34.70;5.10
578;DHT22;275;48.492;9.214;2023-07-13T13:03:56;32.60;6.50
578;DHT22;275;48.492;9.214;2023-07-13T13:06:25;31.00;7.90
578;DHT22;275;48.492;9.214;2023-07-13T13:08:56;30.40;8.50
578;DHT22;275;48.492;9.214;2023-07-13T13:11:26;30.70;8.80
578;DHT22;275;48.492;9.214;2023-07-13T13:13:53;30.50;8.20
578;DHT22;275;48.492;9.214;2023-07-13T13:16:22;29.90;9.10
578;DHT22;275;48.492;9.214;2023-07-13T13:18:51;29.60;9.40
578;DHT22;275;48.492;9.214;2023-07-13T13:21:18;30.10;8.70
578;DHT22;275;48.492;9.214;2023-07-13T13:23:46;30.70;8.10
578;DHT22;275;48.492;9.214;2023-07-13T13:26:15;30.10;8.90
578;DHT22;275;48.492;9.214;2023-07-13T13:28:42;30.20;8.60
578;DHT22;275;48.492;9.214;2023-07-13T13:31:09;30.10;9.10
578;DHT22;275;48.492;9.214;2023-07-13T13:33:38;29.80;8.70
578;DHT22;275;48.492;9.214;2023-07-13T13:36:13;29.80;8.90
578;DHT22;275;48.492;9.214;2023-07-13T13:38:41;29.80;9.10
578;DHT22;275;48.492;9.214;2023-07-13T13:41:09;29.80;8.40
578;DHT22;275;48.492;9.214;2023-07-13T13:43:38;30.70;7.70
578;DHT22;275;48.492;9.214;2023-07-13T13:46:14;30.80;7.80
578;DHT22;275;48.492;9.214;2023-07-13T13:48:43;29.70;8.70
578;DHT22;275;48.492;9.214;2023-07-13T13:51:14;29.00;9.50
578;DHT22;275;48.492;9.214;2023-07-13T13:53:41;28.90;9.90
578;DHT22;275;48.492;9.214;2023-07-13T13:56:09;29.50;9.40
578;DHT22;275;48.492;9.214;2023-07-13T13:58:36;30.00;8.80
578;DHT22;275;48.492;9.214;2023-07-13T14:01:04;30.40;8.70
578;DHT22;275;48.492;9.214;2023-07-13T14:03:34;30.10;8.40
578;DHT22;275;48.492;9.214;2023-07-13T14:06:01;29.60;9.00
578;DHT22;275;48.492;9.214;2023-07-13T14:08:28;29.80;8.70
578;DHT22;275;48.492;9.214;2023-07-13T14:10:57;30.10;8.40
578;DHT22;275;48.492;9.214;2023-07-13T14:13:27;29.50;9.10
578;DHT22;275;48.492;9.214;2023-07-13T14:15:54;29.70;8.80
578;DHT22;275;48.492;9.214;2023-07-13T14:18:23;30.30;8.30
578;DHT22;275;48.492;9.214;2023-07-13T14:20:50;30.40;8.20
578;DHT22;275;48.492;9.214;2023-07-13T14:23:18;29.80;9.10
578;DHT22;275;48.492;9.214;2023-07-13T14:25:45;29.30;9.30
578;DHT22;275;48.492;9.214;2023-07-13T14:28:23;28.80;9.70
578;DHT22;275;48.492;9.214;2023-07-13T14:30:52;28.80;9.40
578;DHT22;275;48.492;9.214;2023-07-13T14:33:20;28.50;9.80
578;DHT22;275;48.492;9.214;2023-07-13T14:35:49;28.70;9.50
578;DHT22;275;48.492;9.214;2023-07-13T14:38:18;29.10;9.50
578;DHT22;275;48.492;9.214;2023-07-13T14:40:46;29.50;8.90
578;DHT22;275;48.492;9.214;2023-07-13T14:43:13;29.50;8.60
578;DHT22;275;48.492;9.214;2023-07-13T14:45:42;29.50;8.50
578;DHT22;275;48.492;9.214;2023-07-13T14:48:14;29.70;8.30
578;DHT22;275;48.492;9.214;2023-07-13T14:50:42;30.40;8.00
578;DHT22;275;48.492;9.214;2023-07-13T14:53:11;30.80;7.50
578;DHT22;275;48.492;9.214;2023-07-13T14:55:38;30.40;7.80
578;DHT22;275;48.492;9.214;2023-07-13T14:58:06;30.30;7.50
578;DHT22;275;48.492;9.214;2023-07-13T15:00:33;30.20;7.50
578;DHT22;275;48.492;9.214;2023-07-13T15:03:00;30.00;7.90
578;DHT22;275;48.492;9.214;2023-07-13T15:05:29;29.90;8.00
578;DHT22;275;48.492;9.214;2023-07-13T15:07:58;29.60;8.30
578;DHT22;275;48.492;9.214;2023-07-13T15:10:28;29.60;8.10
578;DHT22;275;48.492;9.214;2023-07-13T15:12:59;29.60;8.30
578;DHT22;275;48.492;9.214;2023-07-13T15:15:28;29.60;8.40
578;DHT22;275;48.492;9.214;2023-07-13T15:17:56;30.20;7.90
578;DHT22;275;48.492;9.214;2023-07-13T15:20:28;30.30;7.60
578;DHT22;275;48.492;9.214;2023-07-13T15:22:56;30.30;7.50
578;DHT22;275;48.492;9.214;2023-07-13T15:25:24;30.30;7.60
578;DHT22;275;48.492;9.214;2023-07-13T15:27:53;30.00;8.10
578;DHT22;275;48.492;9.214;2023-07-13T15:30:21;29.20;9.30
578;DHT22;275;48.492;9.214;2023-07-13T15:32:48;29.00;9.20
578;DHT22;275;48.492;9.214;2023-07-13T15:35:17;28.60;9.80
578;DHT22;275;48.492;9.214;2023-07-13T15:37:44;29.00;9.30
578;DHT22;275;48.492;9.214;2023-07-13T15:40:13;29.10;9.10
578;DHT22;275;48.492;9.214;2023-07-13T15:42:41;29.20;9.20
578;DHT22;275;48.492;9.214;2023-07-13T15:45:17;30.00;8.40
578;DHT22;275;48.492;9.214;2023-07-13T15:47:45;30.40;8.10
578;DHT22;275;48.492;9.214;2023-07-13T15:50:13;30.80;7.70
578;DHT22;275;48.492;9.214;2023-07-13T15:52:41;31.10;7.70
578;DHT22;275;48.492;9.214;2023-07-13T15:55:10;31.10;7.70
578;DHT22;275;48.492;9.214;2023-07-13T15:57:37;30.90;8.00
578;DHT22;275;48.492;9.214;2023-07-13T16:00:16;30.60;8.20
578;DHT22;275;48.492;9.214;2023-07-13T16:02:43;29.50;10.40
578;DHT22;275;48.492;9.214;2023-07-13T16:05:10;29.10;11.50
578;DHT22;275;48.492;9.214;2023-07-13T16:07:37;29.30;11.10
578;DHT22;275;48.492;9.214;2023-07-13T16:10:04;28.90;11.60
578;DHT22;275;48.492;9.214;2023-07-13T16:12:33;28.20;12.10
578;DHT22;275;48.492;9.214;2023-07-13T16:15:00;27.90;13.00
578;DHT22;275;48.492;9.214;2023-07-13T16:17:28;27.90;13.20
578;DHT22;275;48.492;9.214;2023-07-13T16:19:56;28.00;13.20
578;DHT22;275;48.492;9.214;2023-07-13T16:22:24;28.70;12.50
578;DHT22;275;48.492;9.214;2023-07-13T16:24:51;29.00;12.30
578;DHT22;275;48.492;9.214;2023-07-13T16:27:21;29.70;11.60
578;DHT22;275;48.492;9.214;2023-07-13T16:29:49;30.50;10.80
578;DHT22;275;48.492;9.214;2023-07-13T16:32:16;31.00;10.10
578;DHT22;275;48.492;9.214;2023-07-13T16:34:44;30.70;9.90
578;DHT22;275;48.492;9.214;2023-07-13T16:37:15;30.10;10.70
578;DHT22;275;48.492;9.214;2023-07-13T16:39:47;29.30;11.40
578;DHT22;275;48.492;9.214;2023-07-13T16:42:14;29.50;11.30
578;DHT22;275;48.492;9.214;2023-07-13T16:44:41;29.50;11.40
578;DHT22;275;48.492;9.214;2023-07-13T16:47:11;28.70;12.60
578;DHT22;275;48.492;9.214;2023-07-13T16:49:39;28.70;12.90
578;DHT22;275;48.492;9.214;2023-07-13T16:52:10;28.50;13.00